Terminal Aerodrome Forecast
Issued by NWS La Crosse, WI

Home | Current Version | Previous Version | Text Only | Print | Product List | Glossary On
Versions: 1 2 3 4 5 6 7 8 9 10 11 12 13 14 15 16 17
000
FTUS43 KARX 182338
TAFLSE
TAF
KLSE 182338Z 1900/1924 18012KT P6SM SCT200 WS020/19045KT
     FM190700 18007KT P6SM BKN120
     FM191000 08004KT P6SM OVC060
     FM191200 03005KT P6SM -RA OVC020
     FM191600 03007KT 3SM -RA BR OVC008
     FM192200 04011KT 3SM -FZRA BR OVC008=

USA.gov is the U.S. government's official web portal to all federal, state and local government web resources and services.